Time;durP1;ratioP1;P1;durP2;ratioP2;P2;SDS_P1;SDS_P2;PMS_P1;PMS_P2;Temp;Humidity;BMP_temperature;BMP_pressure;BME280_temperature;BME280_humidity;BME280_pressure;Samples;Min_cycle;Max_cycle;Signal;HPM_P1;HPM_P2
2022/06/11 00:01:23;;;;;;;4.03;3.60;;;19.20;78.10;;;;;;6219331;23;20310;-90
2022/06/11 00:03:51;;;;;;;5.50;2.90;;;19.20;78.10;;;;;;6219295;23;20148;-90
2022/06/11 00:06:18;;;;;;;4.03;2.78;;;19.20;78.30;;;;;;6218936;23;20160;-90
2022/06/11 00:08:44;;;;;;;3.28;2.85;;;19.10;78.40;;;;;;6219051;23;20161;-90
2022/06/11 00:11:10;;;;;;;5.60;2.97;;;19.10;78.40;;;;;;6218823;23;20680;-90
2022/06/11 00:13:38;;;;;;;3.40;3.10;;;19.10;78.40;;;;;;6246496;23;20160;-90
2022/06/11 00:16:04;;;;;;;3.90;3.08;;;19.10;78.20;;;;;;6194598;23;20171;-90
2022/06/11 00:18:40;;;;;;;3.45;3.05;;;19.10;78.40;;;;;;6219767;23;20173;-90
2022/06/11 00:21:06;;;;;;;4.25;2.88;;;19.10;78.50;;;;;;6246715;22;20618;-90
2022/06/11 00:23:32;;;;;;;4.32;3.05;;;19.10;78.50;;;;;;6219449;23;20152;-90
2022/06/11 00:26:01;;;;;;;3.63;2.85;;;19.10;78.50;;;;;;6218984;23;20157;-90
2022/06/11 00:28:27;;;;;;;3.78;2.90;;;19.10;78.40;;;;;;6246162;23;20153;-90
2022/06/11 00:30:53;;;;;;;4.13;3.17;;;19.20;78.40;;;;;;6219100;23;20259;-90
2022/06/11 00:33:20;;;;;;;6.03;2.87;;;19.10;78.20;;;;;;6219095;23;20163;-90
2022/06/11 00:35:47;;;;;;;3.05;2.65;;;19.20;78.00;;;;;;6245947;23;20160;-90
2022/06/11 00:38:14;;;;;;;4.20;3.20;;;19.10;78.20;;;;;;6218798;23;20183;-89
2022/06/11 00:40:43;;;;;;;8.32;3.05;;;19.10;78.30;;;;;;6219296;23;20180;-90
2022/06/11 00:43:12;;;;;;;6.43;4.22;;;19.10;78.40;;;;;;6218747;23;20236;-91
2022/06/11 00:45:46;;;;;;;4.45;2.40;;;19.10;77.90;;;;;;6193644;23;20161;-90
2022/06/11 00:48:34;;;;;;;3.83;3.35;;;19.10;78.10;;;;;;6218549;23;20148;-90
2022/06/11 00:51:12;;;;;;;6.75;3.10;;;19.10;78.00;;;;;;6218561;23;20176;-91
2022/06/11 00:54:14;;;;;;;5.53;2.58;;;19.10;78.10;;;;;;6219759;23;20156;-90
2022/06/11 00:56:48;;;;;;;5.25;2.40;;;19.10;77.40;;;;;;6174465;23;20160;-90
2022/06/11 00:59:19;;;;;;;2.38;2.17;;;19.10;77.20;;;;;;6221708;22;20172;-90
2022/06/11 01:01:47;;;;;;;4.05;2.15;;;19.10;77.20;;;;;;6222587;23;20571;-90
2022/06/11 01:04:51;;;;;;;3.25;1.88;;;19.10;77.00;;;;;;6222477;23;20242;-89
2022/06/11 01:07:49;;;;;;;3.53;2.25;;;19.10;76.40;;;;;;6248181;23;20137;-90
2022/06/11 01:10:51;;;;;;;3.70;2.03;;;19.10;76.20;;;;;;6206350;22;20179;-90
2022/06/11 01:13:49;;;;;;;3.28;2.45;;;19.20;75.10;;;;;;6219014;23;20624;-90
2022/06/11 01:16:24;;;;;;;2.60;2.40;;;19.20;75.10;;;;;;6188856;23;20184;-90
2022/06/11 01:18:59;;;;;;;4.75;2.00;;;19.20;74.70;;;;;;6218846;23;20233;-90
2022/06/11 01:21:44;;;;;;;2.40;1.60;;;19.20;74.50;;;;;;6245829;22;20199;-90
2022/06/11 01:24:42;;;;;;;3.08;1.85;;;19.20;74.40;;;;;;6246505;23;20136;-89
2022/06/11 01:27:29;;;;;;;4.00;1.85;;;19.20;74.00;;;;;;6219938;23;20145;-90
2022/06/11 01:29:59;;;;;;;2.45;1.70;;;19.30;74.00;;;;;;6218576;23;20176;-89
2022/06/11 01:33:00;;;;;;;3.08;1.80;;;19.30;73.90;;;;;;6246416;23;20226;-90
2022/06/11 01:35:45;;;;;;;5.50;2.03;;;19.30;73.40;;;;;;6245186;23;20148;-91
2022/06/11 01:38:25;;;;;;;4.38;2.22;;;19.30;73.00;;;;;;6217966;23;20196;-89
2022/06/11 01:41:01;;;;;;;4.43;1.50;;;19.30;72.60;;;;;;6193168;23;20172;-90
2022/06/11 01:43:36;;;;;;;1.75;1.58;;;19.40;72.30;;;;;;6219538;23;20148;-89
2022/06/11 01:46:06;;;;;;;1.83;1.27;;;19.30;72.10;;;;;;6196219;23;20151;-89
2022/06/11 01:48:32;;;;;;;2.78;1.50;;;19.30;72.10;;;;;;6220013;23;20212;-90
2022/06/11 01:51:26;;;;;;;4.93;2.10;;;19.20;72.10;;;;;;6218687;23;20204;-90
2022/06/11 01:54:08;;;;;;;1.90;1.73;;;19.20;72.30;;;;;;6245842;23;20141;-90
2022/06/11 01:56:51;;;;;;;6.28;1.80;;;19.10;72.40;;;;;;6219302;23;20621;-90
2022/06/11 01:59:54;;;;;;;4.32;2.00;;;19.10;72.60;;;;;;6220087;22;20272;-89
2022/06/11 02:02:41;;;;;;;3.15;1.42;;;19.10;72.70;;;;;;6219062;23;20163;-90
2022/06/11 02:05:13;;;;;;;4.88;1.50;;;19.10;72.80;;;;;;6219465;23;20235;-90
2022/06/11 02:07:50;;;;;;;3.35;1.70;;;19.10;72.70;;;;;;6219393;23;20152;-90
2022/06/11 02:10:27;;;;;;;5.68;2.42;;;19.10;72.60;;;;;;6218569;23;20592;-90
2022/06/11 02:12:58;;;;;;;5.25;1.67;;;19.10;72.50;;;;;;6219084;23;20156;-90
2022/06/11 02:15:53;;;;;;;3.00;1.50;;;19.10;72.60;;;;;;6219716;23;20145;-89
2022/06/11 02:18:20;;;;;;;2.58;1.70;;;19.10;72.50;;;;;;6222788;23;20259;-90
2022/06/11 02:20:52;;;;;;;6.80;1.67;;;19.10;72.50;;;;;;6257569;22;20169;-90
2022/06/11 02:23:41;;;;;;;3.65;1.75;;;19.20;72.40;;;;;;6229928;23;20145;-90
2022/06/11 02:26:16;;;;;;;3.42;1.75;;;19.20;72.40;;;;;;6223795;23;20227;-90
2022/06/11 02:28:47;;;;;;;4.10;1.70;;;19.20;72.60;;;;;;6221138;23;20236;-89
2022/06/11 02:31:17;;;;;;;3.80;1.90;;;19.20;72.50;;;;;;6249365;22;20180;-89
2022/06/11 02:33:52;;;;;;;3.20;2.25;;;19.20;71.90;;;;;;6249595;23;20152;-89
2022/06/11 02:36:29;;;;;;;4.68;1.90;;;19.10;71.90;;;;;;6222578;23;20152;-88
2022/06/11 02:38:57;;;;;;;3.40;1.63;;;19.20;72.00;;;;;;6222557;23;20203;-89
2022/06/11 02:41:28;;;;;;;5.32;1.90;;;19.20;72.10;;;;;;6223156;23;20176;-89
2022/06/11 02:43:54;;;;;;;4.68;2.17;;;19.20;71.70;;;;;;6249610;23;20579;-89
2022/06/11 02:49:05;;;;;;;3.30;1.88;;;19.20;71.40;;;;;;6249375;22;20164;-89
2022/06/11 02:51:50;;;;;;;3.78;1.95;;;19.20;71.60;;;;;;6220673;23;20164;-90
2022/06/11 02:54:17;;;;;;;5.32;1.95;;;19.20;71.40;;;;;;6247787;23;20579;-90
2022/06/11 02:56:44;;;;;;;3.08;1.75;;;19.20;71.30;;;;;;6220353;23;20207;-90
2022/06/11 02:59:10;;;;;;;3.63;1.50;;;19.20;71.40;;;;;;6219997;22;20199;-89
2022/06/11 03:01:36;;;;;;;5.70;1.65;;;19.20;71.20;;;;;;6221693;23;20163;-89
2022/06/11 03:04:03;;;;;;;3.30;1.90;;;19.20;71.20;;;;;;6221966;23;20471;-89
2022/06/11 03:06:29;;;;;;;5.07;1.77;;;19.20;71.10;;;;;;6247066;23;20148;-89
2022/06/11 03:08:56;;;;;;;5.70;1.70;;;19.20;70.90;;;;;;6246847;23;20160;-89
2022/06/11 03:11:22;;;;;;;6.38;2.20;;;19.20;70.90;;;;;;6219938;23;20192;-89
2022/06/11 03:13:53;;;;;;;4.00;2.10;;;19.10;70.80;;;;;;6223507;23;20157;-89
2022/06/11 03:16:19;;;;;;;2.95;1.70;;;19.20;71.00;;;;;;6223604;23;20157;-89
2022/06/11 03:18:45;;;;;;;2.10;1.65;;;19.10;70.80;;;;;;6224432;23;20187;-89
2022/06/11 03:21:11;;;;;;;4.20;1.80;;;19.10;71.00;;;;;;6223545;23;20173;-89
2022/06/11 03:23:37;;;;;;;8.83;2.33;;;19.10;71.00;;;;;;6226490;23;20153;-89
2022/06/11 03:26:03;;;;;;;3.20;1.63;;;19.10;71.20;;;;;;6252443;23;20144;-89
2022/06/11 03:28:30;;;;;;;3.60;1.83;;;19.10;71.40;;;;;;6219910;23;20391;-90
2022/06/11 03:30:57;;;;;;;4.28;1.83;;;19.10;71.40;;;;;;6219194;23;20176;-90
2022/06/11 03:33:27;;;;;;;3.72;1.90;;;19.10;71.90;;;;;;6220017;23;20214;-89
2022/06/11 03:35:57;;;;;;;5.25;2.05;;;19.10;72.10;;;;;;6220054;23;20176;-90
2022/06/11 03:38:23;;;;;;;4.32;2.03;;;19.10;71.80;;;;;;6219927;23;20176;-90
2022/06/11 03:40:49;;;;;;;4.90;1.90;;;19.10;71.60;;;;;;6246560;22;20168;-89
2022/06/11 03:43:18;;;;;;;5.70;2.10;;;19.00;70.90;;;;;;6246526;23;20145;-89
2022/06/11 03:45:44;;;;;;;11.00;2.55;;;19.00;68.90;;;;;;6194547;23;20153;-89
2022/06/11 03:48:11;;;;;;;5.97;2.13;;;19.00;67.80;;;;;;6219688;23;20161;-89
2022/06/11 03:50:38;;;;;;;6.32;2.70;;;19.10;67.30;;;;;;6219775;23;20263;-89
2022/06/11 03:53:06;;;;;;;6.63;2.50;;;19.10;66.70;;;;;;6219321;23;20160;-89
2022/06/11 03:55:34;;;;;;;16.83;3.03;;;18.90;65.10;;;;;;6219283;23;20161;-89
2022/06/11 03:58:00;;;;;;;7.60;2.70;;;18.90;63.70;;;;;;6245861;23;20168;-89
2022/06/11 04:03:15;;;;;;;6.65;2.58;;;18.90;62.20;;;;;;6246131;23;20144;-89
2022/06/11 04:05:42;;;;;;;6.18;2.50;;;18.90;62.00;;;;;;6219375;23;20157;-89
2022/06/11 04:08:10;;;;;;;9.65;2.53;;;18.90;61.00;;;;;;6219276;23;20194;-89
2022/06/11 04:10:37;;;;;;;8.07;2.85;;;18.90;61.20;;;;;;6219308;23;20250;-89
2022/06/11 04:13:03;;;;;;;5.38;2.65;;;19.00;61.20;;;;;;6246298;23;20757;-89
2022/06/11 04:15:29;;;;;;;14.68;3.70;;;19.00;61.00;;;;;;6246160;23;20148;-88
2022/06/11 04:17:58;;;;;;;10.87;3.30;;;18.90;60.60;;;;;;6194158;23;20180;-88
2022/06/11 04:20:24;;;;;;;9.65;2.70;;;18.90;60.30;;;;;;6219001;23;20582;-88
2022/06/11 04:22:49;;;;;;;7.50;2.83;;;19.00;60.50;;;;;;6219286;23;20181;-89
2022/06/11 04:25:17;;;;;;;7.47;2.80;;;19.10;60.20;;;;;;6219288;23;20617;-89
2022/06/11 04:27:43;;;;;;;9.85;2.40;;;19.00;59.50;;;;;;6219128;23;20157;-89
2022/06/11 04:30:13;;;;;;;13.25;4.63;;;18.90;59.10;;;;;;6219216;23;20177;-89
2022/06/11 04:32:39;;;;;;;9.55;2.75;;;19.00;59.40;;;;;;6219370;23;20176;-88
2022/06/11 04:35:06;;;;;;;14.23;3.00;;;19.00;59.20;;;;;;6219230;23;20196;-88
2022/06/11 04:37:32;;;;;;;12.40;3.70;;;19.20;58.90;;;;;;6219459;23;20234;-87
2022/06/11 04:40:00;;;;;;;11.33;2.63;;;19.10;58.80;;;;;;6219182;23;20180;-88
2022/06/11 04:42:28;;;;;;;7.70;2.35;;;19.10;58.90;;;;;;6218804;23;20379;-88
2022/06/11 04:44:54;;;;;;;13.50;3.40;;;19.00;58.50;;;;;;6245730;23;20149;-89
2022/06/11 04:47:24;;;;;;;9.05;3.10;;;19.10;58.70;;;;;;6219395;23;20148;-88
2022/06/11 04:49:52;;;;;;;17.10;4.63;;;19.20;58.90;;;;;;6194284;23;20470;-88
2022/06/11 04:52:17;;;;;;;8.10;2.80;;;19.20;58.70;;;;;;6218712;23;20497;-88
2022/06/11 04:54:52;;;;;;;12.70;3.30;;;19.30;58.90;;;;;;6245799;23;20149;-88
2022/06/11 04:57:19;;;;;;;9.50;2.97;;;19.30;58.60;;;;;;6218217;23;20151;-88
2022/06/11 04:59:44;;;;;;;7.72;3.58;;;19.30;59.30;;;;;;6218808;23;20177;-88
2022/06/11 05:02:10;;;;;;;11.30;3.80;;;19.30;58.50;;;;;;6218726;23;20231;-89
2022/06/11 05:04:36;;;;;;;9.50;2.80;;;19.50;58.60;;;;;;6245740;23;20173;-89
2022/06/11 05:07:03;;;;;;;7.07;2.70;;;19.50;58.00;;;;;;6218616;23;20183;-88
2022/06/11 05:09:30;;;;;;;14.52;3.83;;;19.60;57.80;;;;;;6218461;23;20444;-89
2022/06/11 05:11:57;;;;;;;12.20;3.47;;;19.70;57.30;;;;;;6218859;23;20638;-88
2022/06/11 05:14:23;;;;;;;15.20;3.07;;;19.70;57.10;;;;;;6218681;23;20164;-88
2022/06/11 05:16:50;;;;;;;12.27;3.50;;;19.60;57.10;;;;;;6245134;23;20846;-89
2022/06/11 05:19:30;;;;;;;5.97;2.97;;;19.60;57.30;;;;;;6245365;22;20465;-88
2022/06/11 05:21:56;;;;;;;8.70;3.47;;;19.80;57.20;;;;;;6223525;23;20159;-88
2022/06/11 05:24:22;;;;;;;7.40;3.23;;;19.90;56.50;;;;;;6218984;23;20380;-88
2022/06/11 05:26:59;;;;;;;11.23;3.53;;;20.00;56.30;;;;;;6218556;23;20383;-88
2022/06/11 05:29:41;;;;;;;8.53;3.07;;;20.00;56.60;;;;;;6245268;22;20399;-88
2022/06/11 05:32:07;;;;;;;8.90;3.67;;;20.20;56.70;;;;;;6218595;23;20383;-88
2022/06/11 05:34:33;;;;;;;8.80;3.30;;;20.40;55.70;;;;;;6223521;23;20489;-88
2022/06/11 05:36:59;;;;;;;13.40;4.03;;;20.60;54.30;;;;;;6222834;23;20393;-88
2022/06/11 05:39:26;;;;;;;11.70;3.70;;;20.80;54.40;;;;;;6223933;22;20274;-88
2022/06/11 05:41:52;;;;;;;14.83;3.87;;;21.00;53.50;;;;;;6224620;23;20441;-88
2022/06/11 05:44:18;;;;;;;10.43;3.57;;;21.40;52.90;;;;;;6224618;23;20395;-87
2022/06/11 05:46:44;;;;;;;16.77;4.37;;;21.60;52.30;;;;;;6224222;23;20443;-88
2022/06/11 05:49:16;;;;;;;10.30;4.20;;;21.70;51.70;;;;;;6218693;22;20165;-88
2022/06/11 05:51:51;;;;;;;9.07;3.73;;;21.70;52.30;;;;;;6219154;23;20379;-88
2022/06/11 05:54:22;;;;;;;15.53;5.40;;;21.80;51.40;;;;;;6219205;23;20383;-88
2022/06/11 05:56:48;;;;;;;19.40;5.83;;;21.80;51.50;;;;;;6219369;23;20379;-89
2022/06/11 05:59:19;;;;;;;10.67;4.10;;;22.00;50.90;;;;;;6219367;22;20427;-89
2022/06/11 06:01:45;;;;;;;11.47;4.10;;;22.40;50.10;;;;;;6219000;23;20378;-89
2022/06/11 06:04:11;;;;;;;10.67;4.33;;;22.80;49.30;;;;;;6218484;23;20390;-90
2022/06/11 06:06:37;;;;;;;12.63;4.23;;;22.70;49.20;;;;;;6218546;23;20376;-89
2022/06/11 06:09:03;;;;;;;16.20;5.17;;;22.60;49.90;;;;;;6245926;22;20148;-89
2022/06/11 06:11:29;;;;;;;15.93;5.67;;;22.40;50.40;;;;;;6220068;23;20422;-89
2022/06/11 06:13:56;;;;;;;12.50;4.70;;;22.00;50.90;;;;;;6220225;23;20384;-89
2022/06/11 06:16:26;;;;;;;12.23;4.60;;;21.80;51.40;;;;;;6247588;23;20390;-88
2022/06/11 06:18:52;;;;;;;14.53;4.37;;;21.50;52.30;;;;;;6220083;23;20881;-89
2022/06/11 06:21:21;;;;;;;13.63;4.13;;;21.30;53.00;;;;;;6219736;23;20449;-89
2022/06/11 06:23:47;;;;;;;16.63;5.47;;;21.20;53.80;;;;;;6219284;23;20441;-89
2022/06/11 06:26:13;;;;;;;17.77;5.60;;;21.10;53.90;;;;;;6245813;23;20372;-89
2022/06/11 06:28:38;;;;;;;13.70;4.13;;;21.20;54.10;;;;;;6245682;23;20499;-90
2022/06/11 06:31:06;;;;;;;16.87;5.10;;;21.20;54.70;;;;;;6219308;23;20403;-89
2022/06/11 06:33:33;;;;;;;18.37;5.87;;;21.30;54.60;;;;;;6218745;23;20387;-89
2022/06/11 06:36:01;;;;;;;17.57;4.90;;;21.40;54.80;;;;;;6194729;23;20397;-89
2022/06/11 06:38:27;;;;;;;21.53;6.77;;;21.30;54.90;;;;;;6219634;23;20426;-90
2022/06/11 06:40:53;;;;;;;13.00;4.07;;;21.10;54.50;;;;;;6246155;22;20391;-89
2022/06/11 06:43:20;;;;;;;18.77;5.83;;;21.00;55.10;;;;;;6255104;23;20393;-89
2022/06/11 06:45:46;;;;;;;16.40;5.97;;;21.00;55.90;;;;;;6261354;23;20372;-89
2022/06/11 06:48:12;;;;;;;12.90;3.80;;;21.00;56.50;;;;;;6264681;23;20529;-89
2022/06/11 06:50:38;;;;;;;16.53;5.07;;;21.10;56.70;;;;;;6221238;23;20407;-89
2022/06/11 06:53:04;;;;;;;20.47;5.00;;;21.10;56.00;;;;;;6194101;23;20882;-88
2022/06/11 06:55:30;;;;;;;20.67;5.67;;;20.90;56.70;;;;;;6218670;23;20686;-89
2022/06/11 06:58:01;;;;;;;14.90;4.60;;;20.80;56.40;;;;;;6219026;23;20507;-89
2022/06/11 07:00:27;;;;;;;19.30;4.50;;;20.70;56.90;;;;;;6218626;23;20479;-88
2022/06/11 07:02:55;;;;;;;25.57;7.23;;;20.70;57.10;;;;;;6218558;23;20632;-89
2022/06/11 07:05:23;;;;;;;22.43;5.20;;;20.80;57.00;;;;;;6219485;23;20379;-88
2022/06/11 07:07:49;;;;;;;13.30;4.20;;;20.90;56.80;;;;;;6246930;23;20476;-89
2022/06/11 07:10:17;;;;;;;14.30;4.60;;;21.10;56.70;;;;;;6219692;23;20515;-89
2022/06/11 07:12:43;;;;;;;19.83;4.93;;;21.20;56.40;;;;;;6220351;23;20558;-89
2022/06/11 07:15:09;;;;;;;16.30;4.70;;;21.50;55.00;;;;;;6220425;23;20967;-90
2022/06/11 07:17:43;;;;;;;18.37;4.73;;;21.70;55.50;;;;;;6220067;23;20272;-89
2022/06/11 07:20:15;;;;;;;17.70;4.83;;;21.50;55.90;;;;;;6195499;23;20409;-90
2022/06/11 07:22:50;;;;;;;12.00;3.47;;;21.80;54.20;;;;;;6247864;23;20418;-89
2022/06/11 07:25:15;;;;;;;14.03;4.50;;;21.70;55.50;;;;;;6247666;23;20363;-89
2022/06/11 07:27:49;;;;;;;13.30;4.53;;;21.80;55.00;;;;;;6220292;23;20380;-90
2022/06/11 07:30:17;;;;;;;18.90;5.23;;;22.00;53.00;;;;;;6247799;22;20218;-89
2022/06/11 07:32:47;;;;;;;18.20;4.73;;;21.70;54.40;;;;;;6247900;23;20381;-89
2022/06/11 07:35:24;;;;;;;15.80;4.30;;;21.50;55.10;;;;;;6195966;23;20916;-90
2022/06/11 07:37:51;;;;;;;18.00;5.07;;;21.60;55.20;;;;;;6219565;23;20422;-89
2022/06/11 07:40:21;;;;;;;15.93;4.43;;;21.50;55.10;;;;;;6246834;22;20403;-89
2022/06/11 07:42:47;;;;;;;10.63;3.83;;;21.50;55.70;;;;;;6219615;23;20387;-88
2022/06/11 07:45:13;;;;;;;9.80;3.70;;;21.90;55.10;;;;;;6219687;23;20843;-89
2022/06/11 07:47:54;;;;;;;14.20;4.93;;;22.40;54.20;;;;;;6246274;23;20379;-89
2022/06/11 07:50:24;;;;;;;11.80;3.53;;;22.70;53.40;;;;;;6219075;23;20410;-89
2022/06/11 07:52:50;;;;;;;12.37;4.57;;;23.00;50.70;;;;;;6219758;23;20479;-89
2022/06/11 07:55:15;;;;;;;15.20;4.03;;;23.00;50.20;;;;;;6220187;23;20417;-88
2022/06/11 07:57:41;;;;;;;13.60;4.40;;;23.00;50.80;;;;;;6220049;23;20423;-88
2022/06/11 08:00:12;;;;;;;10.93;3.93;;;22.50;53.20;;;;;;6219921;23;20188;-88
2022/06/11 08:02:38;;;;;;;16.70;5.47;;;22.70;53.70;;;;;;6220351;23;20379;-88
2022/06/11 08:05:05;;;;;;;14.10;4.83;;;22.80;54.30;;;;;;6220328;23;20390;-88
2022/06/11 08:07:31;;;;;;;18.70;5.60;;;22.80;52.00;;;;;;6247420;23;20376;-89
2022/06/11 08:09:58;;;;;;;16.80;5.83;;;22.70;53.40;;;;;;6246614;22;20394;-89
2022/06/11 08:12:25;;;;;;;10.70;4.30;;;22.70;54.80;;;;;;6218900;23;20190;-89
2022/06/11 08:14:56;;;;;;;12.37;4.27;;;22.70;52.70;;;;;;6246175;23;20379;-89
2022/06/11 08:17:27;;;;;;;15.53;4.80;;;22.80;54.00;;;;;;6194805;23;20481;-89
2022/06/11 08:19:53;;;;;;;15.50;4.37;;;22.70;52.10;;;;;;6245529;22;20386;-89
2022/06/11 08:22:20;;;;;;;12.67;5.07;;;22.60;52.20;;;;;;6245781;23;20714;-89
2022/06/11 08:24:46;;;;;;;12.23;4.27;;;22.60;52.50;;;;;;6245629;23;20376;-89
2022/06/11 08:27:12;;;;;;;13.73;4.40;;;22.50;54.10;;;;;;6245711;23;20368;-89
2022/06/11 08:33:00;;;;;;;17.50;4.40;;;22.90;52.60;;;;;;6245552;23;20346;-88
2022/06/11 08:35:29;;;;;;;13.93;3.57;;;22.80;54.10;;;;;;6218995;23;20467;-89
2022/06/11 08:37:55;;;;;;;12.60;4.10;;;23.00;54.50;;;;;;6245430;23;20940;-89
2022/06/11 08:40:31;;;;;;;9.17;3.80;;;23.20;53.50;;;;;;6218952;23;20400;-89
2022/06/11 08:43:25;;;;;;;10.90;4.80;;;23.10;54.20;;;;;;6218872;23;20988;-89
2022/06/11 08:46:01;;;;;;;11.60;4.47;;;23.50;49.70;;;;;;6208173;23;20376;-89
2022/06/11 08:48:41;;;;;;;17.00;4.13;;;23.40;51.30;;;;;;6219440;23;20849;-89
2022/06/11 08:51:15;;;;;;;17.53;4.00;;;23.20;49.70;;;;;;6219084;23;20412;-89
2022/06/11 08:53:41;;;;;;;12.90;4.77;;;22.90;49.80;;;;;;6245856;23;20356;-89
2022/06/11 08:56:25;;;;;;;10.03;4.17;;;22.90;52.90;;;;;;6218400;23;20441;-89
2022/06/11 08:59:04;;;;;;;11.87;4.37;;;22.80;51.20;;;;;;6217417;23;20172;-89
2022/06/11 09:01:41;;;;;;;7.43;3.73;;;22.50;51.10;;;;;;6218459;23;20467;-89
2022/06/11 09:04:51;;;;;;;13.30;4.43;;;22.50;52.30;;;;;;6218348;23;20713;-89
2022/06/11 09:07:27;;;;;;;11.10;3.50;;;22.40;52.40;;;;;;6219386;23;20378;-89
2022/06/11 09:10:47;;;;;;;12.00;3.77;;;22.10;52.10;;;;;;6218755;23;20402;-89
2022/06/11 09:13:31;;;;;;;6.40;2.90;;;22.10;51.90;;;;;;6218521;23;20403;-89
2022/06/11 09:16:18;;;;;;;14.43;3.47;;;22.20;54.10;;;;;;6218543;23;20386;-89
2022/06/11 09:18:49;;;;;;;7.30;4.03;;;22.10;54.50;;;;;;6218030;23;20442;-89
2022/06/11 09:21:52;;;;;;;8.27;3.43;;;22.30;54.60;;;;;;6245619;22;20403;-88
2022/06/11 09:24:42;;;;;;;11.10;3.83;;;22.40;51.50;;;;;;6218655;23;20471;-88
2022/06/11 09:27:14;;;;;;;12.63;4.20;;;22.10;52.40;;;;;;6218573;23;20384;-89
2022/06/11 09:30:02;;;;;;;12.80;4.63;;;22.10;55.00;;;;;;6245585;22;20403;-89
2022/06/11 09:32:30;;;;;;;17.43;4.90;;;22.10;53.40;;;;;;6218294;23;20837;-89
2022/06/11 09:35:10;;;;;;;9.90;3.80;;;22.00;53.00;;;;;;6218691;23;20387;-89
2022/06/11 09:37:59;;;;;;;7.13;3.10;;;21.90;53.90;;;;;;6218472;23;20424;-89
2022/06/11 09:40:42;;;;;;;8.20;2.93;;;22.20;52.90;;;;;;6218999;23;20403;-89
2022/06/11 09:44:03;;;;;;;7.90;3.40;;;22.20;53.60;;;;;;6219037;23;20433;-89
2022/06/11 09:46:43;;;;;;;8.07;3.10;;;22.10;52.10;;;;;;6218331;23;20386;-89
2022/06/11 09:49:19;;;;;;;8.37;3.77;;;22.00;51.50;;;;;;6244402;22;20406;-89
2022/06/11 09:52:07;;;;;;;12.97;4.27;;;22.10;49.80;;;;;;6218361;23;20381;-89
2022/06/11 09:54:45;;;;;;;5.33;3.10;;;22.20;49.10;;;;;;6218046;23;20392;-89
2022/06/11 09:57:43;;;;;;;11.23;3.80;;;22.60;49.90;;;;;;6217638;23;20384;-89
2022/06/11 10:00:38;;;;;;;10.70;3.80;;;22.70;49.10;;;;;;6245061;22;20891;-89
2022/06/11 10:03:30;;;;;;;6.67;2.50;;;22.40;48.10;;;;;;6218283;23;20373;-89
2022/06/11 10:06:16;;;;;;;5.50;2.43;;;22.40;50.50;;;;;;6244409;23;20382;-89
2022/06/11 10:08:56;;;;;;;10.50;3.30;;;22.70;49.60;;;;;;6218383;23;20367;-89
2022/06/11 10:11:36;;;;;;;8.63;3.07;;;23.30;47.20;;;;;;6217924;23;20471;-89
2022/06/11 10:17:02;;;;;;;8.00;2.97;;;23.30;48.10;;;;;;6247000;23;20356;-88
2022/06/11 10:19:31;;;;;;;7.30;2.50;;;23.40;47.30;;;;;;6221825;23;20446;-89
2022/06/11 10:22:20;;;;;;;8.80;3.10;;;23.60;45.30;;;;;;6225606;23;20437;-89
2022/06/11 10:25:29;;;;;;;10.30;4.10;;;23.30;46.60;;;;;;6249004;23;20364;-89
2022/06/11 10:28:19;;;;;;;7.70;2.73;;;23.30;46.40;;;;;;6232803;22;20453;-89
2022/06/11 10:31:04;;;;;;;9.90;3.13;;;23.00;50.80;;;;;;6218139;23;20416;-88
2022/06/11 10:33:38;;;;;;;11.43;3.03;;;22.80;50.20;;;;;;6218558;23;20383;-89
2022/06/11 10:36:25;;;;;;;9.53;2.50;;;22.50;51.30;;;;;;6218261;23;20426;-90
2022/06/11 10:39:09;;;;;;;9.73;3.03;;;22.80;49.70;;;;;;6245452;23;20410;-89
2022/06/11 10:41:56;;;;;;;8.43;2.90;;;22.80;51.80;;;;;;6220015;23;20415;-90
2022/06/11 10:44:38;;;;;;;6.60;2.90;;;22.80;50.10;;;;;;6220524;23;20461;-89
2022/06/11 10:47:16;;;;;;;9.63;3.50;;;22.70;50.50;;;;;;6220131;23;20884;-89
2022/06/11 10:49:45;;;;;;;14.73;3.47;;;22.50;49.70;;;;;;6247177;22;20426;-89
2022/06/11 10:52:21;;;;;;;5.87;3.00;;;22.50;51.00;;;;;;6221219;23;20477;-89
2022/06/11 10:54:47;;;;;;;13.63;3.17;;;22.60;51.20;;;;;;6220869;23;20375;-89
2022/06/11 10:57:25;;;;;;;14.53;3.73;;;22.80;50.00;;;;;;6247888;23;20517;-89
2022/06/11 11:00:14;;;;;;;10.13;3.40;;;23.00;48.50;;;;;;6223955;23;20259;-89
2022/06/11 11:02:56;;;;;;;13.53;3.37;;;23.00;48.70;;;;;;6221603;23;20999;-89
2022/06/11 11:05:22;;;;;;;8.07;3.33;;;22.70;51.50;;;;;;6221111;23;20386;-89
2022/06/11 11:07:59;;;;;;;12.33;3.23;;;22.60;51.40;;;;;;6219652;23;20387;-89
2022/06/11 11:10:54;;;;;;;10.10;3.47;;;22.50;51.30;;;;;;6248487;22;20406;-89
2022/06/11 11:13:30;;;;;;;9.23;3.50;;;22.40;51.30;;;;;;6220086;23;20399;-90
2022/06/11 11:15:59;;;;;;;9.53;3.07;;;22.40;51.30;;;;;;6247284;23;20363;-90
2022/06/11 11:18:32;;;;;;;7.33;2.77;;;22.40;52.30;;;;;;6221125;23;20456;-89
2022/06/11 11:20:59;;;;;;;7.00;2.50;;;22.40;54.30;;;;;;6246789;22;20398;-88
2022/06/11 11:23:40;;;;;;;9.40;2.97;;;22.60;55.90;;;;;;6247180;23;20706;-88
2022/06/11 11:26:27;;;;;;;12.40;3.50;;;22.90;53.50;;;;;;6197601;23;20417;-90
2022/06/11 11:28:55;;;;;;;13.87;3.40;;;22.80;53.70;;;;;;6220265;23;20470;-90
2022/06/11 11:31:26;;;;;;;8.30;2.90;;;22.80;52.30;;;;;;6221025;23;20407;-90
2022/06/11 11:34:32;;;;;;;9.10;3.00;;;22.90;51.20;;;;;;6247437;23;20851;-88
2022/06/11 11:37:13;;;;;;;9.37;2.90;;;22.70;49.50;;;;;;6249175;23;20348;-88
2022/06/11 11:39:48;;;;;;;7.07;2.70;;;22.70;52.80;;;;;;6219446;23;20522;-88
2022/06/11 11:42:25;;;;;;;6.53;2.47;;;23.00;51.80;;;;;;6246757;23;20375;-88
2022/06/11 11:44:57;;;;;;;9.57;2.60;;;22.80;52.40;;;;;;6218859;23;20375;-89
2022/06/11 11:47:44;;;;;;;7.63;3.90;;;23.10;52.00;;;;;;6218911;23;20723;-89
2022/06/11 11:50:13;;;;;;;8.87;3.10;;;23.30;50.10;;;;;;6218430;23;20439;-89
2022/06/11 11:52:51;;;;;;;11.73;3.53;;;23.20;52.30;;;;;;6246217;23;20375;-89
2022/06/11 11:55:32;;;;;;;9.67;3.00;;;23.20;50.60;;;;;;6219278;23;20371;-89
2022/06/11 11:58:00;;;;;;;17.50;2.43;;;23.40;50.70;;;;;;6218636;23;20430;-88
2022/06/11 12:00:28;;;;;;;5.83;2.57;;;23.60;47.70;;;;;;6219079;23;20409;-89
2022/06/11 12:03:05;;;;;;;6.50;2.67;;;23.60;51.00;;;;;;6218883;23;20842;-89
2022/06/11 12:05:46;;;;;;;12.30;3.00;;;23.50;52.70;;;;;;6219697;23;20394;-89
2022/06/11 12:08:26;;;;;;;9.83;2.50;;;23.50;52.10;;;;;;6245753;23;20756;-89
2022/06/11 12:10:57;;;;;;;8.17;2.80;;;23.40;51.90;;;;;;6217782;23;20403;-89
2022/06/11 12:13:25;;;;;;;7.00;2.70;;;23.40;52.60;;;;;;6218831;23;20410;-89
2022/06/11 12:16:01;;;;;;;8.00;2.80;;;23.80;48.60;;;;;;6218760;23;20395;-89
2022/06/11 12:22:00;;;;;;;10.77;3.40;;;23.90;48.70;;;;;;6246244;23;20355;-88
2022/06/11 12:24:37;;;;;;;6.47;2.63;;;24.30;49.60;;;;;;6219433;23;20403;-90
2022/06/11 12:27:13;;;;;;;10.10;2.87;;;24.60;46.40;;;;;;6219443;23;20377;-89
2022/06/11 12:29:47;;;;;;;8.13;2.60;;;24.50;46.90;;;;;;6219894;23;20741;-90
2022/06/11 12:32:17;;;;;;;6.73;3.10;;;24.20;46.90;;;;;;6218795;23;20433;-87
2022/06/11 12:34:43;;;;;;;7.73;2.30;;;24.00;48.30;;;;;;6220451;23;20449;-89
2022/06/11 12:37:18;;;;;;;6.63;2.20;;;23.90;48.30;;;;;;6221386;23;20380;-88
2022/06/11 12:40:27;;;;;;;7.53;2.70;;;24.00;49.00;;;;;;6222590;23;20497;-88
2022/06/11 12:43:30;;;;;;;6.60;2.30;;;24.10;48.30;;;;;;6248880;23;20367;-88
2022/06/11 12:46:01;;;;;;;7.73;2.30;;;24.50;47.30;;;;;;6247856;23;20396;-88
2022/06/11 12:48:34;;;;;;;4.27;2.07;;;24.90;46.40;;;;;;6221734;23;20377;-89
2022/06/11 12:51:16;;;;;;;5.83;2.00;;;25.10;44.70;;;;;;6221758;23;20734;-89
2022/06/11 12:53:59;;;;;;;7.90;3.20;;;25.20;44.90;;;;;;6250418;23;20398;-88
2022/06/11 12:56:31;;;;;;;6.30;2.20;;;25.30;44.00;;;;;;6252586;23;20377;-88
2022/06/11 12:59:06;;;;;;;9.83;2.77;;;25.50;42.20;;;;;;6220821;23;20420;-88
2022/06/11 13:01:56;;;;;;;7.43;2.70;;;25.50;43.30;;;;;;6247283;23;20920;-88
2022/06/11 13:04:34;;;;;;;7.53;2.43;;;25.60;44.20;;;;;;6221794;23;20410;-88
2022/06/11 13:07:11;;;;;;;7.53;2.73;;;25.30;45.70;;;;;;6248335;23;20366;-88
2022/06/11 13:09:58;;;;;;;8.80;2.73;;;25.20;46.30;;;;;;6221696;23;20471;-87
2022/06/11 13:12:33;;;;;;;7.77;2.67;;;25.00;45.30;;;;;;6222204;23;20444;-88
2022/06/11 13:15:19;;;;;;;7.97;4.10;;;24.70;46.50;;;;;;6221605;23;20386;-88
2022/06/11 13:17:57;;;;;;;5.13;2.33;;;24.60;46.70;;;;;;6221102;23;20730;-89
2022/06/11 13:20:44;;;;;;;9.23;2.73;;;24.60;47.20;;;;;;6221484;23;20415;-88
2022/06/11 13:23:21;;;;;;;7.17;2.37;;;24.40;46.70;;;;;;6221550;23;20374;-88
2022/06/11 13:26:06;;;;;;;10.60;2.90;;;24.50;47.80;;;;;;6221457;23;20386;-88
2022/06/11 13:28:34;;;;;;;6.47;2.33;;;24.60;47.40;;;;;;6221262;23;20381;-88
2022/06/11 13:31:22;;;;;;;7.67;2.63;;;24.50;47.20;;;;;;6221469;23;20417;-88
2022/06/11 13:34:17;;;;;;;4.73;2.33;;;24.60;46.50;;;;;;6221271;23;20456;-88